sensor_id;sensor_type;location;lat;lon;timestamp;pressure;altitude;pressure_sealevel;temperature;humidity
26823;BME280;14852;51.910;8.878;2022-09-09T00:04:32;99076.34;;;18.26;57.40
26823;BME280;14852;51.910;8.878;2022-09-09T00:10:34;99067.56;;;18.35;56.93
26823;BME280;14852;51.910;8.878;2022-09-09T00:13:28;99073.50;;;18.37;56.92
26823;BME280;14852;51.910;8.878;2022-09-09T00:16:19;99069.09;;;18.37;56.98
26823;BME280;14852;51.910;8.878;2022-09-09T00:19:07;99063.69;;;18.39;57.21
26823;BME280;14852;51.910;8.878;2022-09-09T00:27:27;99059.34;;;18.48;57.04
26823;BME280;14852;51.910;8.878;2022-09-09T00:30:25;99057.94;;;18.53;56.97
26823;BME280;14852;51.910;8.878;2022-09-09T00:33:00;99052.38;;;18.56;56.94
26823;BME280;14852;51.910;8.878;2022-09-09T00:35:56;99056.09;;;18.63;57.15
26823;BME280;14852;51.910;8.878;2022-09-09T00:38:41;99057.47;;;18.67;56.61
26823;BME280;14852;51.910;8.878;2022-09-09T00:41:51;99054.53;;;18.70;56.58
26823;BME280;14852;51.910;8.878;2022-09-09T00:44:37;99060.47;;;18.72;56.93
26823;BME280;14852;51.910;8.878;2022-09-09T00:47:26;99057.69;;;18.74;56.87
26823;BME280;14852;51.910;8.878;2022-09-09T00:50:02;99055.66;;;18.86;56.72
26823;BME280;14852;51.910;8.878;2022-09-09T00:53:05;99051.63;;;18.91;56.41
26823;BME280;14852;51.910;8.878;2022-09-09T00:58:33;99051.84;;;18.98;56.90
26823;BME280;14852;51.910;8.878;2022-09-09T01:01:07;99049.28;;;19.06;56.38
26823;BME280;14852;51.910;8.878;2022-09-09T01:03:54;99045.06;;;19.13;56.34
26823;BME280;14852;51.910;8.878;2022-09-09T01:06:30;99058.75;;;19.16;56.61
26823;BME280;14852;51.910;8.878;2022-09-09T01:22:18;99056.34;;;19.23;57.25
26823;BME280;14852;51.910;8.878;2022-09-09T01:25:20;99048.59;;;19.22;57.66
26823;BME280;14852;51.910;8.878;2022-09-09T01:28:00;99056.78;;;19.18;57.87
26823;BME280;14852;51.910;8.878;2022-09-09T01:30:28;99060.72;;;19.14;57.82
26823;BME280;14852;51.910;8.878;2022-09-09T01:32:57;99059.38;;;19.10;58.09
26823;BME280;14852;51.910;8.878;2022-09-09T01:38:15;99059.13;;;19.04;58.16
26823;BME280;14852;51.910;8.878;2022-09-09T01:40:44;99060.28;;;19.01;58.38
26823;BME280;14852;51.910;8.878;2022-09-09T01:43:10;99061.25;;;19.00;58.68
26823;BME280;14852;51.910;8.878;2022-09-09T01:45:39;99059.59;;;18.99;58.29
26823;BME280;14852;51.910;8.878;2022-09-09T01:48:06;99063.19;;;18.98;58.84
26823;BME280;14852;51.910;8.878;2022-09-09T01:50:58;99063.19;;;18.98;58.40
26823;BME280;14852;51.910;8.878;2022-09-09T01:53:24;99061.41;;;18.99;58.47
26823;BME280;14852;51.910;8.878;2022-09-09T02:04:48;99051.06;;;19.05;58.15
26823;BME280;14852;51.910;8.878;2022-09-09T02:07:49;99058.97;;;19.05;58.18
26823;BME280;14852;51.910;8.878;2022-09-09T02:11:03;99051.06;;;19.05;58.54
26823;BME280;14852;51.910;8.878;2022-09-09T02:13:47;99054.03;;;19.02;58.51
26823;BME280;14852;51.910;8.878;2022-09-09T02:16:27;99057.50;;;19.03;58.31
26823;BME280;14852;51.910;8.878;2022-09-09T02:21:56;99058.06;;;18.97;58.89
26823;BME280;14852;51.910;8.878;2022-09-09T02:24:25;99062.81;;;18.93;58.95
26823;BME280;14852;51.910;8.878;2022-09-09T02:27:06;99053.44;;;18.91;58.70
26823;BME280;14852;51.910;8.878;2022-09-09T02:29:41;99052.75;;;18.89;58.68
26823;BME280;14852;51.910;8.878;2022-09-09T02:32:17;99048.06;;;18.83;58.78
26823;BME280;14852;51.910;8.878;2022-09-09T02:34:56;99050.63;;;18.74;59.46
26823;BME280;14852;51.910;8.878;2022-09-09T02:37:34;99057.06;;;18.62;59.17
26823;BME280;14852;51.910;8.878;2022-09-09T02:40:08;99057.25;;;18.51;59.61
26823;BME280;14852;51.910;8.878;2022-09-09T02:42:49;99066.56;;;18.45;59.53
26823;BME280;14852;51.910;8.878;2022-09-09T02:45:20;99068.53;;;18.43;59.98
26823;BME280;14852;51.910;8.878;2022-09-09T02:50:41;99060.63;;;18.43;59.54
26823;BME280;14852;51.910;8.878;2022-09-09T02:53:24;99067.91;;;18.50;59.59
26823;BME280;14852;51.910;8.878;2022-09-09T02:56:08;99061.81;;;18.49;59.09
26823;BME280;14852;51.910;8.878;2022-09-09T02:58:39;99066.56;;;18.45;59.57
26823;BME280;14852;51.910;8.878;2022-09-09T03:01:06;99060.47;;;18.45;59.81
26823;BME280;14852;51.910;8.878;2022-09-09T03:03:32;99070.19;;;18.44;59.81
26823;BME280;14852;51.910;8.878;2022-09-09T03:06:02;99071.16;;;18.43;59.89
26823;BME280;14852;51.910;8.878;2022-09-09T03:08:28;99074.06;;;18.40;59.96
26823;BME280;14852;51.910;8.878;2022-09-09T03:10:57;99076.69;;;18.40;59.74
26823;BME280;14852;51.910;8.878;2022-09-09T03:13:26;99069.50;;;18.42;60.06
26823;BME280;14852;51.910;8.878;2022-09-09T03:15:51;99076.56;;;18.42;59.84
26823;BME280;14852;51.910;8.878;2022-09-09T03:18:20;99074.06;;;18.40;60.05
26823;BME280;14852;51.910;8.878;2022-09-09T03:20:49;99065.34;;;18.40;60.28
26823;BME280;14852;51.910;8.878;2022-09-09T03:23:17;99063.81;;;18.37;59.80
26823;BME280;14852;51.910;8.878;2022-09-09T03:25:50;99066.16;;;18.40;60.28
26823;BME280;14852;51.910;8.878;2022-09-09T03:28:21;99061.59;;;18.42;60.22
26823;BME280;14852;51.910;8.878;2022-09-09T03:30:48;99064.75;;;18.46;60.24
26823;BME280;14852;51.910;8.878;2022-09-09T03:33:15;99058.69;;;18.45;60.01
26823;BME280;14852;51.910;8.878;2022-09-09T03:35:46;99061.00;;;18.49;59.71
26823;BME280;14852;51.910;8.878;2022-09-09T03:38:18;99066.94;;;18.51;59.87
26823;BME280;14852;51.910;8.878;2022-09-09T03:40:55;99069.16;;;18.55;60.03
26823;BME280;14852;51.910;8.878;2022-09-09T03:43:25;99063.06;;;18.55;59.87
26823;BME280;14852;51.910;8.878;2022-09-09T03:45:53;99067.34;;;18.56;59.92
26823;BME280;14852;51.910;8.878;2022-09-09T03:48:23;99061.25;;;18.55;60.01
26823;BME280;14852;51.910;8.878;2022-09-09T03:50:52;99069.97;;;18.56;59.99
26823;BME280;14852;51.910;8.878;2022-09-09T03:53:20;99059.59;;;18.54;59.86
26823;BME280;14852;51.910;8.878;2022-09-09T03:55:52;99069.28;;;18.54;60.10
26823;BME280;14852;51.910;8.878;2022-09-09T03:58:22;99060.84;;;18.50;60.02
26823;BME280;14852;51.910;8.878;2022-09-09T04:00:56;99055.03;;;18.46;59.75
26823;BME280;14852;51.910;8.878;2022-09-09T04:03:23;99055.38;;;18.43;59.93
26823;BME280;14852;51.910;8.878;2022-09-09T04:05:55;99057.16;;;18.43;59.99
26823;BME280;14852;51.910;8.878;2022-09-09T04:08:23;99055.50;;;18.42;60.12
26823;BME280;14852;51.910;8.878;2022-09-09T04:10:51;99054.69;;;18.41;60.14
26823;BME280;14852;51.910;8.878;2022-09-09T04:13:18;99048.72;;;18.39;60.20
26823;BME280;14852;51.910;8.878;2022-09-09T04:16:00;99046.25;;;18.38;59.78
26823;BME280;14852;51.910;8.878;2022-09-09T04:18:27;99056.41;;;18.33;60.12
26823;BME280;14852;51.910;8.878;2022-09-09T04:20:54;99056.81;;;18.28;60.17
26823;BME280;14852;51.910;8.878;2022-09-09T04:23:26;99057.25;;;18.24;60.93
26823;BME280;14852;51.910;8.878;2022-09-09T04:25:55;99065.19;;;18.14;60.70
26823;BME280;14852;51.910;8.878;2022-09-09T04:28:26;99068.41;;;18.08;60.84
26823;BME280;14852;51.910;8.878;2022-09-09T04:30:53;99073.25;;;18.03;60.61
26823;BME280;14852;51.910;8.878;2022-09-09T04:33:19;99073.53;;;18.00;61.07
26823;BME280;14852;51.910;8.878;2022-09-09T04:35:48;99080.44;;;18.01;60.86
26823;BME280;14852;51.910;8.878;2022-09-09T04:38:16;99085.56;;;18.02;60.89
26823;BME280;14852;51.910;8.878;2022-09-09T04:40:46;99088.88;;;18.04;60.83
26823;BME280;14852;51.910;8.878;2022-09-09T04:43:12;99082.78;;;18.04;60.46
26823;BME280;14852;51.910;8.878;2022-09-09T04:45:41;99087.22;;;18.03;60.69
26823;BME280;14852;51.910;8.878;2022-09-09T04:48:08;99102.16;;;18.03;61.06
26823;BME280;14852;51.910;8.878;2022-09-09T04:50:35;99103.97;;;18.02;60.44
26823;BME280;14852;51.910;8.878;2022-09-09T04:53:02;99097.06;;;18.01;61.18
26823;BME280;14852;51.910;8.878;2022-09-09T04:55:30;99099.69;;;18.01;61.34
26823;BME280;14852;51.910;8.878;2022-09-09T04:57:57;99097.88;;;18.02;61.38
26823;BME280;14852;51.910;8.878;2022-09-09T05:00:24;99094.97;;;18.05;61.81
26823;BME280;14852;51.910;8.878;2022-09-09T05:02:51;99096.50;;;18.07;61.39
26823;BME280;14852;51.910;8.878;2022-09-09T05:05:17;99102.59;;;18.08;61.40
26823;BME280;14852;51.910;8.878;2022-09-09T05:07:45;99094.56;;;18.09;61.20
26823;BME280;14852;51.910;8.878;2022-09-09T05:10:13;99093.41;;;18.12;61.66
26823;BME280;14852;51.910;8.878;2022-09-09T05:12:39;99099.69;;;18.11;61.55
26823;BME280;14852;51.910;8.878;2022-09-09T05:15:06;99103.09;;;18.12;61.63
26823;BME280;14852;51.910;8.878;2022-09-09T05:17:32;99099.69;;;18.11;61.22
26823;BME280;14852;51.910;8.878;2022-09-09T05:19:59;99085.00;;;18.08;61.50
26823;BME280;14852;51.910;8.878;2022-09-09T05:22:25;99080.59;;;18.09;61.41
26823;BME280;14852;51.910;8.878;2022-09-09T05:24:52;99096.22;;;18.11;61.87
26823;BME280;14852;51.910;8.878;2022-09-09T05:27:18;99089.81;;;18.13;61.93
26823;BME280;14852;51.910;8.878;2022-09-09T05:29:46;99091.88;;;18.19;61.82
26823;BME280;14852;51.910;8.878;2022-09-09T05:32:13;99092.13;;;18.26;61.52
26823;BME280;14852;51.910;8.878;2022-09-09T05:34:41;99092.38;;;18.32;61.30
26823;BME280;14852;51.910;8.878;2022-09-09T05:37:07;99095.09;;;18.40;61.29
26823;BME280;14852;51.910;8.878;2022-09-09T05:39:34;99100.47;;;18.49;61.24
26823;BME280;14852;51.910;8.878;2022-09-09T05:42:02;99098.38;;;18.52;60.80
26823;BME280;14852;51.910;8.878;2022-09-09T05:44:30;99100.03;;;18.53;61.12
26823;BME280;14852;51.910;8.878;2022-09-09T05:46:57;99091.03;;;18.56;61.33
26823;BME280;14852;51.910;8.878;2022-09-09T05:49:24;99092.09;;;18.63;61.02
26823;BME280;14852;51.910;8.878;2022-09-09T05:51:50;99098.00;;;18.74;60.91
26823;BME280;14852;51.910;8.878;2022-09-09T05:54:17;99094.19;;;18.87;60.54
26823;BME280;14852;51.910;8.878;2022-09-09T05:56:47;99102.41;;;19.01;60.23
26823;BME280;14852;51.910;8.878;2022-09-09T05:59:16;99105.16;;;19.17;60.03
26823;BME280;14852;51.910;8.878;2022-09-09T06:01:42;99100.94;;;19.42;60.04
26823;BME280;14852;51.910;8.878;2022-09-09T06:04:15;99104.34;;;19.70;59.16
26823;BME280;14852;51.910;8.878;2022-09-09T06:06:41;99100.81;;;20.13;58.53
26823;BME280;14852;51.910;8.878;2022-09-09T06:09:12;99093.09;;;20.54;57.38
26823;BME280;14852;51.910;8.878;2022-09-09T06:11:41;99094.22;;;21.18;55.98
26823;BME280;14852;51.910;8.878;2022-09-09T06:14:09;99093.09;;;21.77;54.82
26823;BME280;14852;51.910;8.878;2022-09-09T06:16:36;99084.63;;;22.14;54.36
26823;BME280;14852;51.910;8.878;2022-09-09T06:19:14;99076.94;;;22.97;51.92
26823;BME280;14852;51.910;8.878;2022-09-09T06:21:40;99080.91;;;22.70;53.04
26823;BME280;14852;51.910;8.878;2022-09-09T06:24:07;99082.28;;;22.19;54.49
26823;BME280;14852;51.910;8.878;2022-09-09T06:26:38;99087.66;;;21.79;55.58
26823;BME280;14852;51.910;8.878;2022-09-09T06:29:07;99090.28;;;21.46;56.81
26823;BME280;14852;51.910;8.878;2022-09-09T06:31:35;99086.34;;;21.26;57.44
26823;BME280;14852;51.910;8.878;2022-09-09T06:34:22;99086.47;;;21.08;57.84
26823;BME280;14852;51.910;8.878;2022-09-09T06:36:58;99088.28;;;21.00;58.28
26823;BME280;14852;51.910;8.878;2022-09-09T06:39:25;99090.41;;;20.96;58.37
26823;BME280;14852;51.910;8.878;2022-09-09T06:41:51;99089.91;;;20.92;58.21
26823;BME280;14852;51.910;8.878;2022-09-09T06:44:37;99089.56;;;20.87;58.17
26823;BME280;14852;51.910;8.878;2022-09-09T06:47:05;99083.78;;;20.76;58.53
26823;BME280;14852;51.910;8.878;2022-09-09T06:49:32;99085.22;;;20.70;58.92
26823;BME280;14852;51.910;8.878;2022-09-09T06:51:59;99098.41;;;20.62;58.65
26823;BME280;14852;51.910;8.878;2022-09-09T06:54:26;99101.19;;;20.52;59.15
26823;BME280;14852;51.910;8.878;2022-09-09T06:56:53;99095.09;;;20.52;59.17
26823;BME280;14852;51.910;8.878;2022-09-09T06:59:22;99101.34;;;20.51;58.79
26823;BME280;14852;51.910;8.878;2022-09-09T07:01:49;99101.19;;;20.52;59.03
26823;BME280;14852;51.910;8.878;2022-09-09T07:04:17;99103.81;;;20.52;58.92
26823;BME280;14852;51.910;8.878;2022-09-09T07:06:45;99103.31;;;20.49;58.88
26823;BME280;14852;51.910;8.878;2022-09-09T07:09:16;99105.28;;;20.55;59.13
26823;BME280;14852;51.910;8.878;2022-09-09T07:11:49;99107.16;;;20.63;58.55
26823;BME280;14852;51.910;8.878;2022-09-09T07:14:17;99098.25;;;20.64;58.84
26823;BME280;14852;51.910;8.878;2022-09-09T07:16:47;99096.59;;;20.63;59.14
26823;BME280;14852;51.910;8.878;2022-09-09T07:19:14;99094.28;;;20.68;58.91
26823;BME280;14852;51.910;8.878;2022-09-09T07:21:42;99102.72;;;20.71;58.88
26823;BME280;14852;51.910;8.878;2022-09-09T07:24:10;99100.59;;;20.75;58.83
26823;BME280;14852;51.910;8.878;2022-09-09T07:26:39;99104.38;;;20.80;58.86
26823;BME280;14852;51.910;8.878;2022-09-09T07:29:07;99105.88;;;20.83;58.71
26823;BME280;14852;51.910;8.878;2022-09-09T07:31:36;99106.56;;;20.85;58.50
26823;BME280;14852;51.910;8.878;2022-09-09T07:34:06;99110.50;;;20.89;58.47
26823;BME280;14852;51.910;8.878;2022-09-09T07:36:37;99118.47;;;20.97;58.57
26823;BME280;14852;51.910;8.878;2022-09-09T07:39:11;99117.50;;;20.98;58.21
26823;BME280;14852;51.910;8.878;2022-09-09T07:41:46;99117.81;;;20.95;58.19
26823;BME280;14852;51.910;8.878;2022-09-09T07:44:16;99116.50;;;20.99;58.35
26823;BME280;14852;51.910;8.878;2022-09-09T07:46:46;99118.00;;;21.10;58.42
26823;BME280;14852;51.910;8.878;2022-09-09T07:49:16;99118.88;;;21.18;58.12
26823;BME280;14852;51.910;8.878;2022-09-09T07:51:46;99121.03;;;21.23;57.84
26823;BME280;14852;51.910;8.878;2022-09-09T07:54:17;99118.19;;;21.24;57.77
26823;BME280;14852;51.910;8.878;2022-09-09T07:56:47;99122.50;;;21.25;57.89
26823;BME280;14852;51.910;8.878;2022-09-09T07:59:13;99120.88;;;21.33;58.04
26823;BME280;14852;51.910;8.878;2022-09-09T08:01:50;99118.06;;;21.42;57.46
26823;BME280;14852;51.910;8.878;2022-09-09T08:04:22;99123.34;;;21.58;57.41
26823;BME280;14852;51.910;8.878;2022-09-09T08:06:56;99120.88;;;21.65;56.86
26823;BME280;14852;51.910;8.878;2022-09-09T08:09:24;99123.00;;;21.78;56.76
26823;BME280;14852;51.910;8.878;2022-09-09T08:11:53;99116.22;;;21.91;56.50
26823;BME280;14852;51.910;8.878;2022-09-09T08:14:19;99111.56;;;22.10;56.21
26823;BME280;14852;51.910;8.878;2022-09-09T08:16:48;99112.13;;;22.44;55.02
26823;BME280;14852;51.910;8.878;2022-09-09T08:19:17;99109.38;;;23.30;53.99
26823;BME280;14852;51.910;8.878;2022-09-09T08:21:45;99102.41;;;24.48;50.59
26823;BME280;14852;51.910;8.878;2022-09-09T08:24:12;99106.56;;;25.02;50.06
26823;BME280;14852;51.910;8.878;2022-09-09T08:26:44;99104.78;;;26.28;47.64
26823;BME280;14852;51.910;8.878;2022-09-09T08:29:12;99101.47;;;27.61;44.60
26823;BME280;14852;51.910;8.878;2022-09-09T08:34:15;99101.38;;;26.54;46.64
26823;BME280;14852;51.910;8.878;2022-09-09T08:36:47;99109.28;;;25.72;48.12
26823;BME280;14852;51.910;8.878;2022-09-09T08:39:19;99112.25;;;24.84;49.90
26823;BME280;14852;51.910;8.878;2022-09-09T08:42:16;99125.19;;;24.13;51.77
26823;BME280;14852;51.910;8.878;2022-09-09T08:50:34;99133.00;;;23.09;53.68
26823;BME280;14852;51.910;8.878;2022-09-09T08:58:18;99137.31;;;23.10;53.45
26823;BME280;14852;51.910;8.878;2022-09-09T09:01:23;99137.91;;;23.20;53.07
26823;BME280;14852;51.910;8.878;2022-09-09T09:04:27;99131.38;;;23.31;52.66
26823;BME280;14852;51.910;8.878;2022-09-09T09:07:11;99138.56;;;23.68;52.28
26823;BME280;14852;51.910;8.878;2022-09-09T09:09:56;99130.41;;;24.07;50.68
26823;BME280;14852;51.910;8.878;2022-09-09T09:12:32;99123.94;;;24.53;49.92
26823;BME280;14852;51.910;8.878;2022-09-09T09:15:01;99122.19;;;25.11;49.72
26823;BME280;14852;51.910;8.878;2022-09-09T09:17:35;99125.47;;;25.77;48.31
26823;BME280;14852;51.910;8.878;2022-09-09T09:20:10;99110.72;;;26.30;47.44
26823;BME280;14852;51.910;8.878;2022-09-09T09:22:51;99114.72;;;26.54;47.65
26823;BME280;14852;51.910;8.878;2022-09-09T09:25:34;99119.66;;;26.57;47.40
26823;BME280;14852;51.910;8.878;2022-09-09T09:30:58;99105.75;;;26.68;47.34
26823;BME280;14852;51.910;8.878;2022-09-09T09:33:31;99107.72;;;26.94;47.16
26823;BME280;14852;51.910;8.878;2022-09-09T09:35:59;99094.19;;;27.02;46.58
26823;BME280;14852;51.910;8.878;2022-09-09T09:38:28;99093.81;;;27.06;46.52
26823;BME280;14852;51.910;8.878;2022-09-09T09:40:58;99088.69;;;27.17;45.81
26823;BME280;14852;51.910;8.878;2022-09-09T09:43:35;99086.75;;;26.91;46.30
26823;BME280;14852;51.910;8.878;2022-09-09T09:46:05;99088.16;;;26.81;46.35
26823;BME280;14852;51.910;8.878;2022-09-09T09:48:44;99092.69;;;26.80;46.14
26823;BME280;14852;51.910;8.878;2022-09-09T09:51:14;99098.22;;;26.79;46.20
26823;BME280;14852;51.910;8.878;2022-09-09T09:53:43;99103.22;;;26.47;45.62
26823;BME280;14852;51.910;8.878;2022-09-09T09:56:13;99106.31;;;26.16;46.36
26823;BME280;14852;51.910;8.878;2022-09-09T09:58:49;99106.94;;;25.90;47.29
26823;BME280;14852;51.910;8.878;2022-09-09T10:01:30;99107.66;;;25.71;47.69
26823;BME280;14852;51.910;8.878;2022-09-09T10:04:21;99112.25;;;25.63;47.74
26823;BME280;14852;51.910;8.878;2022-09-09T10:06:51;99109.06;;;25.52;47.80
26823;BME280;14852;51.910;8.878;2022-09-09T10:15:30;99103.34;;;25.49;47.79
26823;BME280;14852;51.910;8.878;2022-09-09T10:21:41;99106.88;;;25.56;47.56
26823;BME280;14852;51.910;8.878;2022-09-09T10:27:46;99111.19;;;25.36;47.92
26823;BME280;14852;51.910;8.878;2022-09-09T10:30:19;99110.41;;;25.42;47.66
26823;BME280;14852;51.910;8.878;2022-09-09T10:33:23;99106.81;;;25.49;47.27
26823;BME280;14852;51.910;8.878;2022-09-09T10:36:26;99109.03;;;25.46;47.19
26823;BME280;14852;51.910;8.878;2022-09-09T10:42:05;99099.19;;;25.61;47.25
26823;BME280;14852;51.910;8.878;2022-09-09T10:45:07;99098.34;;;25.88;46.71
26823;BME280;14852;51.910;8.878;2022-09-09T10:50:50;99094.84;;;26.22;46.24
26823;BME280;14852;51.910;8.878;2022-09-09T10:54:10;99086.31;;;25.99;45.14
26823;BME280;14852;51.910;8.878;2022-09-09T10:56:44;99091.97;;;25.83;45.62
26823;BME280;14852;51.910;8.878;2022-09-09T10:59:31;99093.19;;;25.87;46.07
26823;BME280;14852;51.910;8.878;2022-09-09T11:02:10;99086.50;;;25.91;45.29
26823;BME280;14852;51.910;8.878;2022-09-09T11:04:49;99093.47;;;25.98;45.46
26823;BME280;14852;51.910;8.878;2022-09-09T11:10:15;99092.19;;;26.16;45.08
26823;BME280;14852;51.910;8.878;2022-09-09T11:12:43;99097.88;;;26.13;44.24
26823;BME280;14852;51.910;8.878;2022-09-09T11:15:22;99092.19;;;26.16;44.89
26823;BME280;14852;51.910;8.878;2022-09-09T11:18:01;99081.53;;;26.22;44.19
26823;BME280;14852;51.910;8.878;2022-09-09T11:20:29;99092.38;;;26.14;44.26
26823;BME280;14852;51.910;8.878;2022-09-09T11:23:17;99084.22;;;26.22;44.54
26823;BME280;14852;51.910;8.878;2022-09-09T11:25:53;99092.38;;;26.21;43.66
26823;BME280;14852;51.910;8.878;2022-09-09T11:31:53;99086.66;;;26.17;44.24
26823;BME280;14852;51.910;8.878;2022-09-09T11:35:00;99080.69;;;26.15;44.12
26823;BME280;14852;51.910;8.878;2022-09-09T11:40:24;99079.06;;;26.55;43.23
26823;BME280;14852;51.910;8.878;2022-09-09T11:43:09;99082.84;;;26.74;42.83
26823;BME280;14852;51.910;8.878;2022-09-09T11:45:38;99079.03;;;27.03;42.38
26823;BME280;14852;51.910;8.878;2022-09-09T11:48:05;99073.94;;;27.21;41.33
26823;BME280;14852;51.910;8.878;2022-09-09T11:53:31;99065.44;;;26.85;41.55
26823;BME280;14852;51.910;8.878;2022-09-09T11:56:12;99072.91;;;26.55;42.33
26823;BME280;14852;51.910;8.878;2022-09-09T11:58:53;99085.19;;;26.49;42.54
26823;BME280;14852;51.910;8.878;2022-09-09T12:01:33;99073.09;;;26.47;41.65
26823;BME280;14852;51.910;8.878;2022-09-09T12:06:59;99078.16;;;26.35;42.37
26823;BME280;14852;51.910;8.878;2022-09-09T12:09:56;99079.38;;;26.32;42.26
26823;BME280;14852;51.910;8.878;2022-09-09T12:12:32;99081.34;;;26.24;41.70
26823;BME280;14852;51.910;8.878;2022-09-09T12:15:01;99092.38;;;26.21;42.27
26823;BME280;14852;51.910;8.878;2022-09-09T12:17:30;99081.97;;;26.26;41.55
26823;BME280;14852;51.910;8.878;2022-09-09T12:20:14;99081.84;;;26.34;41.83
26823;BME280;14852;51.910;8.878;2022-09-09T12:23:17;99076.41;;;26.55;41.87
26823;BME280;14852;51.910;8.878;2022-09-09T12:29:05;99072.47;;;27.12;40.98
26823;BME280;14852;51.910;8.878;2022-09-09T12:36:58;99070.03;;;27.24;40.67
26823;BME280;14852;51.910;8.878;2022-09-09T12:39:40;99072.50;;;27.38;40.53
26823;BME280;14852;51.910;8.878;2022-09-09T12:42:20;99074.34;;;27.51;39.87
26823;BME280;14852;51.910;8.878;2022-09-09T12:45:02;99073.75;;;27.62;39.88
26823;BME280;14852;51.910;8.878;2022-09-09T12:48:03;99066.78;;;27.68;39.59
26823;BME280;14852;51.910;8.878;2022-09-09T12:50:37;99065.34;;;27.65;39.29
26823;BME280;14852;51.910;8.878;2022-09-09T12:53:10;99052.59;;;27.54;39.26
26823;BME280;14852;51.910;8.878;2022-09-09T12:55:51;99056.72;;;27.30;38.65
26823;BME280;14852;51.910;8.878;2022-09-09T12:58:18;99054.41;;;27.01;38.02
26823;BME280;14852;51.910;8.878;2022-09-09T13:00:57;99056.19;;;26.81;39.45
26823;BME280;14852;51.910;8.878;2022-09-09T13:03:23;99055.75;;;26.71;38.87
26823;BME280;14852;51.910;8.878;2022-09-09T13:05:51;99042.81;;;26.67;38.81
26823;BME280;14852;51.910;8.878;2022-09-09T13:08:18;99049.41;;;26.78;38.71
26823;BME280;14852;51.910;8.878;2022-09-09T13:11:01;99040.44;;;26.92;38.41
26823;BME280;14852;51.910;8.878;2022-09-09T13:13:42;99038.41;;;27.01;38.37
26823;BME280;14852;51.910;8.878;2022-09-09T13:16:33;99037.81;;;27.06;38.24
26823;BME280;14852;51.910;8.878;2022-09-09T13:19:07;99040.00;;;26.89;38.24
26823;BME280;14852;51.910;8.878;2022-09-09T13:21:36;99032.19;;;26.81;37.35
26823;BME280;14852;51.910;8.878;2022-09-09T13:24:05;99040.34;;;26.66;37.50
26823;BME280;14852;51.910;8.878;2022-09-09T13:26:33;99030.28;;;26.55;37.83
26823;BME280;14852;51.910;8.878;2022-09-09T13:29:17;99039.28;;;26.54;38.12
26823;BME280;14852;51.910;8.878;2022-09-09T13:31:44;99041.31;;;26.45;37.84
26823;BME280;14852;51.910;8.878;2022-09-09T13:34:32;99035.34;;;26.37;38.14
26823;BME280;14852;51.910;8.878;2022-09-09T13:37:14;99039.22;;;26.27;38.66
26823;BME280;14852;51.910;8.878;2022-09-09T13:39:52;99040.59;;;26.23;38.96
26823;BME280;14852;51.910;8.878;2022-09-09T13:42:28;99037.53;;;26.26;38.65
26823;BME280;14852;51.910;8.878;2022-09-09T13:44:56;99034.16;;;26.46;39.00
26823;BME280;14852;51.910;8.878;2022-09-09T13:47:35;99029.53;;;26.74;38.48
26823;BME280;14852;51.910;8.878;2022-09-09T13:50:21;99026.53;;;26.97;38.81
26823;BME280;14852;51.910;8.878;2022-09-09T13:52:56;99025.09;;;27.14;38.18
26823;BME280;14852;51.910;8.878;2022-09-09T13:55:27;99025.53;;;27.31;37.72
26823;BME280;14852;51.910;8.878;2022-09-09T13:57:59;99024.47;;;27.38;37.24
26823;BME280;14852;51.910;8.878;2022-09-09T14:00:31;99019.34;;;27.37;37.10
26823;BME280;14852;51.910;8.878;2022-09-09T14:02:57;99017.13;;;27.34;37.25
26823;BME280;14852;51.910;8.878;2022-09-09T14:05:24;99020.38;;;27.29;36.90
26823;BME280;14852;51.910;8.878;2022-09-09T14:07:50;99025.31;;;27.19;37.06
26823;BME280;14852;51.910;8.878;2022-09-09T14:10:16;99011.56;;;27.22;37.43
26823;BME280;14852;51.910;8.878;2022-09-09T14:12:42;99016.50;;;27.32;36.75
26823;BME280;14852;51.910;8.878;2022-09-09T14:15:11;99017.94;;;27.34;36.96
26823;BME280;14852;51.910;8.878;2022-09-09T14:17:37;99008.47;;;27.25;36.42
26823;BME280;14852;51.910;8.878;2022-09-09T14:20:04;99013.81;;;26.99;37.09
26823;BME280;14852;51.910;8.878;2022-09-09T14:22:35;99007.00;;;26.77;37.03
26823;BME280;14852;51.910;8.878;2022-09-09T14:25:02;99016.94;;;26.48;37.89
26823;BME280;14852;51.910;8.878;2022-09-09T14:27:28;99014.09;;;26.50;37.74
26823;BME280;14852;51.910;8.878;2022-09-09T14:29:54;99019.22;;;26.58;37.72
26823;BME280;14852;51.910;8.878;2022-09-09T14:32:20;99014.75;;;26.72;37.84
26823;BME280;14852;51.910;8.878;2022-09-09T14:34:46;99014.38;;;26.81;37.36
26823;BME280;14852;51.910;8.878;2022-09-09T14:37:16;99012.94;;;26.85;37.29
26823;BME280;14852;51.910;8.878;2022-09-09T14:39:42;99003.50;;;26.89;37.36
26823;BME280;14852;51.910;8.878;2022-09-09T14:42:10;99007.81;;;26.84;36.69
26823;BME280;14852;51.910;8.878;2022-09-09T14:44:37;99007.38;;;26.80;36.94
26823;BME280;14852;51.910;8.878;2022-09-09T14:47:06;98997.75;;;26.79;37.11
26823;BME280;14852;51.910;8.878;2022-09-09T14:49:34;98996.72;;;26.74;37.46
26823;BME280;14852;51.910;8.878;2022-09-09T14:52:00;98996.09;;;26.65;37.21
26823;BME280;14852;51.910;8.878;2022-09-09T14:54:26;98999.34;;;26.60;37.21
26823;BME280;14852;51.910;8.878;2022-09-09T14:56:52;99000.81;;;26.63;37.65
26823;BME280;14852;51.910;8.878;2022-09-09T14:59:17;98996.09;;;26.72;37.51
26823;BME280;14852;51.910;8.878;2022-09-09T15:01:43;98995.50;;;26.83;36.49
26823;BME280;14852;51.910;8.878;2022-09-09T15:04:13;98987.72;;;26.88;36.44
26823;BME280;14852;51.910;8.878;2022-09-09T15:06:40;98985.88;;;26.88;36.41
26823;BME280;14852;51.910;8.878;2022-09-09T15:09:08;98986.47;;;26.90;36.40
26823;BME280;14852;51.910;8.878;2022-09-09T15:11:36;98994.28;;;26.85;36.15
26823;BME280;14852;51.910;8.878;2022-09-09T15:14:07;99003.28;;;26.78;36.63
26823;BME280;14852;51.910;8.878;2022-09-09T15:16:34;99007.34;;;26.67;35.92
26823;BME280;14852;51.910;8.878;2022-09-09T15:19:01;99005.47;;;26.54;36.16